createdAt,value
2023-01-17T00:02:13.863Z,85.43
2023-01-17T00:04:59.137Z,84.79
2023-01-17T00:07:45.311Z,84.82
2023-01-17T00:10:18.002Z,84.90
2023-01-17T00:12:49.736Z,83.37
2023-01-17T00:15:19.609Z,84.55
2023-01-17T00:17:46.965Z,84.24
2023-01-17T00:20:32.823Z,85.01
2023-01-17T00:23:18.151Z,84.76
2023-01-17T00:26:03.101Z,84.03
2023-01-17T00:28:40.571Z,84.29
2023-01-17T00:31:09.642Z,83.44
2023-01-17T00:33:36.584Z,82.84
2023-01-17T00:36:05.048Z,83.26
2023-01-17T00:38:33.965Z,83.76
2023-01-17T00:41:06.904Z,83.63
2023-01-17T00:43:52.576Z,81.40
2023-01-17T00:46:38.719Z,81.74
2023-01-17T00:49:24.596Z,82.36
2023-01-17T00:52:09.473Z,81.33
2023-01-17T00:54:54.380Z,81.65
2023-01-17T00:57:39.239Z,82.83
2023-01-17T01:00:24.873Z,81.28
2023-01-17T01:03:09.749Z,81.90
2023-01-17T01:05:56.108Z,82.34
2023-01-17T01:08:46.586Z,81.51
2023-01-17T01:11:35.950Z,81.67
2023-01-17T01:14:21.774Z,81.25
2023-01-17T01:17:06.897Z,81.58
2023-01-17T01:19:52.143Z,82.67
2023-01-17T01:22:37.639Z,81.99
2023-01-17T01:25:22.884Z,82.88
2023-01-17T01:28:07.859Z,83.49
2023-01-17T01:30:52.953Z,82.83
2023-01-17T01:33:20.132Z,83.48
2023-01-17T01:35:49.256Z,83.40
2023-01-17T01:38:16.399Z,84.37
2023-01-17T01:40:48.089Z,83.94
2023-01-17T01:43:16.762Z,84.34
2023-01-17T01:45:48.539Z,84.00
2023-01-17T01:48:14.918Z,84.09
2023-01-17T01:50:41.370Z,84.18
2023-01-17T01:53:07.953Z,83.49
2023-01-17T01:55:43.078Z,82.55
2023-01-17T01:58:22.787Z,82.88
2023-01-17T02:00:49.348Z,81.99
2023-01-17T02:03:24.474Z,82.27
2023-01-17T02:05:51.714Z,82.51
2023-01-17T02:08:21.228Z,83.20
2023-01-17T02:10:48.132Z,82.89
2023-01-17T02:13:18.937Z,83.57
2023-01-17T02:15:51.408Z,82.06
2023-01-17T02:18:46.574Z,82.71
2023-01-17T02:21:28.016Z,82.43
2023-01-17T02:24:13.337Z,82.35
2023-01-17T02:26:58.563Z,81.36
2023-01-17T02:29:31.061Z,80.97
2023-01-17T02:32:35.576Z,79.57
2023-01-17T02:35:15.959Z,79.18
2023-01-17T02:38:05.993Z,79.92
2023-01-17T02:40:38.678Z,78.63
2023-01-17T02:43:10.658Z,77.28
2023-01-17T02:45:37.404Z,77.83
2023-01-17T02:48:08.038Z,77.73
2023-01-17T02:51:22.456Z,77.52
2023-01-17T02:53:54.923Z,78.18
2023-01-17T02:57:00.038Z,77.43
2023-01-17T02:59:44.972Z,76.28
2023-01-17T03:02:25.029Z,75.83
2023-01-17T03:04:58.315Z,76.83
2023-01-17T03:07:26.942Z,76.77
2023-01-17T03:09:59.878Z,76.53
2023-01-17T03:12:30.903Z,77.09
2023-01-17T03:14:57.458Z,76.98
2023-01-17T03:17:25.026Z,76.37
2023-01-17T03:19:51.453Z,76.05
2023-01-17T03:22:17.891Z,75.42
2023-01-17T03:24:44.311Z,75.77
2023-01-17T03:27:10.776Z,76.12
2023-01-17T03:29:37.109Z,76.31
2023-01-17T03:32:03.717Z,75.80
2023-01-17T03:34:30.044Z,75.21
2023-01-17T03:36:56.417Z,75.98
2023-01-17T03:39:22.900Z,75.63
2023-01-17T03:41:49.607Z,75.96
2023-01-17T03:44:17.842Z,75.35
2023-01-17T03:46:44.465Z,75.67
2023-01-17T03:49:11.100Z,76.06
2023-01-17T03:51:37.393Z,75.94
2023-01-17T03:54:04.150Z,76.31
2023-01-17T03:56:30.585Z,76.20
2023-01-17T03:58:58.422Z,76.14
2023-01-17T04:01:25.339Z,76.06
2023-01-17T04:03:51.882Z,76.49
2023-01-17T04:06:18.258Z,75.90
2023-01-17T04:08:44.696Z,75.46
2023-01-17T04:11:11.107Z,75.76
2023-01-17T04:13:37.559Z,76.24
2023-01-17T04:16:04.246Z,75.95
2023-01-17T04:18:30.734Z,75.43
2023-01-17T04:20:57.178Z,74.35
2023-01-17T04:23:23.602Z,74.93
2023-01-17T04:25:49.996Z,74.65
2023-01-17T04:28:16.493Z,74.41
2023-01-17T04:30:42.906Z,74.25
2023-01-17T04:33:09.317Z,73.36
2023-01-17T04:35:36.035Z,73.63
2023-01-17T04:38:02.611Z,74.20
2023-01-17T04:40:29.548Z,73.26
2023-01-17T04:42:57.725Z,72.47
2023-01-17T04:45:24.105Z,73.36
2023-01-17T04:47:50.529Z,73.75
2023-01-17T04:50:18.098Z,73.73
2023-01-17T04:52:44.523Z,74.01
2023-01-17T04:55:11.051Z,73.55
2023-01-17T04:57:37.392Z,73.45
2023-01-17T05:00:04.387Z,72.69
2023-01-17T05:02:30.930Z,72.57
2023-01-17T05:04:57.350Z,72.19
2023-01-17T05:07:23.765Z,72.67
2023-01-17T05:09:50.145Z,72.55
2023-01-17T05:12:16.625Z,72.97
2023-01-17T05:14:43.010Z,73.19
2023-01-17T05:17:11.083Z,74.08
2023-01-17T05:19:37.591Z,74.91
2023-01-17T05:22:14.698Z,75.08
2023-01-17T05:24:41.932Z,76.37
2023-01-17T05:27:09.093Z,77.30
2023-01-17T05:29:36.550Z,76.74
2023-01-17T05:32:03.529Z,77.17
2023-01-17T05:34:30.233Z,78.15
2023-01-17T05:36:56.565Z,78.54
2023-01-17T05:39:23.041Z,79.41
2023-01-17T05:41:49.433Z,80.11
2023-01-17T05:44:15.909Z,82.48
2023-01-17T05:46:42.491Z,83.64
2023-01-17T05:49:08.993Z,84.33
2023-01-17T05:51:37.747Z,85.20
2023-01-17T05:54:05.053Z,85.68
2023-01-17T05:56:31.698Z,85.21
2023-01-17T05:58:58.008Z,86.02
2023-01-17T06:01:24.698Z,86.40
2023-01-17T06:03:51.241Z,86.79
2023-01-17T06:06:17.633Z,87.99
2023-01-17T06:08:44.373Z,88.95
2023-01-17T06:11:10.750Z,89.10
2023-01-17T06:13:37.180Z,88.80
2023-01-17T06:16:04.192Z,88.64
2023-01-17T06:18:31.706Z,89.25
2023-01-17T06:20:58.207Z,88.77
2023-01-17T06:23:25.094Z,88.98
2023-01-17T06:25:51.941Z,89.51
2023-01-17T06:28:23.046Z,88.59
2023-01-17T06:30:49.648Z,88.90
2023-01-17T06:33:16.256Z,88.78
2023-01-17T06:35:50.111Z,89.21
2023-01-17T06:38:17.201Z,88.93
2023-01-17T06:40:43.902Z,89.16
2023-01-17T06:43:10.544Z,89.84
2023-01-17T06:45:36.875Z,89.82
2023-01-17T06:48:05.157Z,89.95
2023-01-17T06:50:32.650Z,90.95
2023-01-17T06:53:02.152Z,91.12
2023-01-17T06:55:30.150Z,91.83
2023-01-17T06:57:59.651Z,92.24
2023-01-17T07:00:27.486Z,92.63
2023-01-17T07:02:54.351Z,92.63
2023-01-17T07:05:21.563Z,92.51
2023-01-17T07:07:48.378Z,92.77
2023-01-17T07:10:15.442Z,92.38
2023-01-17T07:12:42.410Z,92.89
2023-01-17T07:15:09.582Z,93.47
2023-01-17T07:17:36.032Z,93.40
2023-01-17T07:20:02.878Z,93.51
2023-01-17T07:22:29.242Z,93.16
2023-01-17T07:24:58.499Z,93.00
2023-01-17T07:27:30.322Z,92.79
2023-01-17T07:29:57.797Z,93.31
2023-01-17T07:32:26.456Z,92.67
2023-01-17T07:34:53.421Z,92.97
2023-01-17T07:37:20.294Z,92.17
2023-01-17T07:39:46.901Z,92.10
2023-01-17T07:42:14.470Z,91.42
2023-01-17T07:44:43.916Z,91.64
2023-01-17T07:47:11.431Z,91.01
2023-01-17T07:49:38.152Z,90.41
2023-01-17T07:52:08.804Z,90.28
2023-01-17T07:54:35.760Z,90.04
2023-01-17T07:57:03.923Z,89.99
2023-01-17T07:59:34.397Z,90.00
2023-01-17T08:02:00.934Z,89.71
2023-01-17T08:04:27.455Z,89.02
2023-01-17T08:06:54.874Z,88.72
2023-01-17T08:09:21.391Z,88.26
2023-01-17T08:11:48.181Z,88.11
2023-01-17T08:14:14.584Z,87.45
2023-01-17T08:16:41.870Z,87.04
2023-01-17T08:19:08.414Z,86.79
2023-01-17T08:21:34.808Z,87.07
2023-01-17T08:24:01.249Z,86.03
2023-01-17T08:26:27.758Z,86.06
2023-01-17T08:28:56.607Z,86.33
2023-01-17T08:31:24.168Z,86.12
2023-01-17T08:33:50.845Z,85.51
2023-01-17T08:36:17.241Z,85.23
2023-01-17T08:38:43.640Z,84.73
2023-01-17T08:41:10.321Z,84.57
2023-01-17T08:43:36.730Z,84.88
2023-01-17T08:46:03.471Z,85.03
2023-01-17T08:48:29.892Z,84.91
2023-01-17T08:51:00.491Z,86.51
2023-01-17T08:53:27.059Z,87.18
2023-01-17T08:56:01.478Z,87.60
2023-01-17T08:58:30.724Z,88.74
2023-01-17T09:01:06.011Z,87.44
2023-01-17T09:03:38.856Z,87.67
2023-01-17T09:06:09.417Z,87.17
2023-01-17T09:08:36.373Z,86.00
2023-01-17T09:11:21.093Z,84.92
2023-01-17T09:13:47.483Z,81.10
2023-01-17T09:16:13.981Z,82.58
2023-01-17T09:18:40.412Z,80.96
2023-01-17T09:21:15.162Z,79.94
2023-01-17T09:23:42.094Z,79.58
2023-01-17T09:26:18.818Z,78.44
2023-01-17T09:28:45.398Z,78.27
2023-01-17T09:31:11.751Z,78.41
2023-01-17T09:33:38.578Z,76.64
2023-01-17T09:36:05.435Z,77.15
2023-01-17T09:38:32.772Z,76.39
2023-01-17T09:41:01.110Z,75.57
2023-01-17T09:43:44.286Z,75.31
2023-01-17T09:46:22.637Z,74.27
2023-01-17T09:49:34.509Z,72.93
2023-01-17T09:52:01.970Z,72.74
2023-01-17T09:54:34.216Z,72.75
2023-01-17T09:57:36.382Z,71.70
2023-01-17T10:00:27.552Z,71.32
2023-01-17T10:03:21.403Z,72.30
2023-01-17T10:06:03.213Z,70.80
2023-01-17T10:08:55.924Z,70.76
2023-01-17T10:11:33.398Z,70.64
2023-01-17T10:14:42.842Z,71.05
2023-01-17T10:17:42.288Z,71.93
2023-01-17T10:20:41.339Z,70.15
2023-01-17T10:23:22.115Z,68.90
2023-01-17T10:25:50.279Z,69.18
2023-01-17T10:28:26.035Z,70.42
2023-01-17T10:30:59.519Z,69.86
2023-01-17T10:33:30.600Z,70.77
2023-01-17T10:36:10.153Z,70.87
2023-01-17T10:38:38.508Z,72.52
2023-01-17T10:41:10.693Z,71.94
2023-01-17T10:44:14.844Z,71.43
2023-01-17T10:46:45.682Z,70.86
2023-01-17T10:49:21.182Z,70.26
2023-01-17T10:52:02.371Z,69.13
2023-01-17T10:54:49.408Z,67.57
2023-01-17T10:57:24.871Z,66.71
2023-01-17T10:59:52.827Z,66.87
2023-01-17T11:02:25.779Z,66.94
2023-01-17T11:04:55.566Z,67.62
2023-01-17T11:07:26.958Z,67.21
2023-01-17T11:09:55.612Z,66.62
2023-01-17T11:12:24.787Z,65.66
2023-01-17T11:15:19.721Z,66.26
2023-01-17T11:17:53.233Z,66.07
2023-01-17T11:20:32.659Z,65.56
2023-01-17T11:23:05.073Z,66.50
2023-01-17T11:25:34.004Z,64.88
2023-01-17T11:28:07.829Z,62.82
2023-01-17T11:30:34.330Z,63.34
2023-01-17T11:33:00.702Z,63.97
2023-01-17T11:35:32.356Z,64.90
2023-01-17T11:38:11.955Z,65.03
2023-01-17T11:40:43.994Z,64.32
2023-01-17T11:43:27.377Z,65.42
2023-01-17T11:46:17.825Z,61.89
2023-01-17T11:48:59.526Z,62.31
2023-01-17T11:51:34.968Z,62.30
2023-01-17T11:54:18.319Z,62.59
2023-01-17T11:56:46.241Z,63.00
2023-01-17T11:59:20.892Z,64.55
2023-01-17T12:01:55.814Z,64.79
2023-01-17T12:04:27.396Z,63.15
2023-01-17T12:07:10.336Z,62.42
2023-01-17T12:09:48.044Z,63.50
2023-01-17T12:13:13.022Z,62.26
2023-01-17T12:15:54.914Z,62.11
2023-01-17T12:18:50.331Z,61.84
2023-01-17T12:21:26.497Z,61.99
2023-01-17T12:24:21.562Z,63.69
2023-01-17T12:27:13.087Z,67.39
2023-01-17T12:29:54.554Z,66.06
2023-01-17T12:32:39.011Z,66.79
2023-01-17T12:35:20.284Z,66.81
2023-01-17T12:38:05.500Z,65.98
2023-01-17T12:40:34.814Z,65.57
2023-01-17T12:43:13.256Z,65.48
2023-01-17T12:45:44.523Z,65.59
2023-01-17T12:48:21.798Z,64.59
2023-01-17T12:51:07.981Z,62.62
2023-01-17T12:53:46.576Z,63.93
2023-01-17T12:56:20.098Z,67.88
2023-01-17T12:58:52.577Z,68.75
2023-01-17T13:01:39.561Z,70.75
2023-01-17T13:04:25.217Z,71.53
2023-01-17T13:07:18.094Z,71.69
2023-01-17T13:09:51.019Z,72.68
2023-01-17T13:12:20.899Z,72.95
2023-01-17T13:14:48.157Z,72.89
2023-01-17T13:17:31.590Z,70.34
2023-01-17T13:20:18.521Z,69.10
2023-01-17T13:22:46.789Z,71.40
2023-01-17T13:25:30.677Z,72.62
2023-01-17T13:28:03.259Z,71.46
2023-01-17T13:30:58.870Z,67.78
2023-01-17T13:33:25.265Z,66.49
2023-01-17T13:36:13.964Z,65.89
2023-01-17T13:38:58.033Z,65.90
2023-01-17T13:41:50.555Z,66.12
2023-01-17T13:44:23.076Z,66.57
2023-01-17T13:46:58.775Z,67.00
2023-01-17T13:49:33.979Z,64.71
2023-01-17T13:52:18.581Z,61.85
2023-01-17T13:54:55.256Z,59.89
2023-01-17T13:57:32.814Z,59.97
2023-01-17T14:00:22.961Z,60.28
2023-01-17T14:02:54.710Z,60.02
2023-01-17T14:05:42.426Z,60.85
2023-01-17T14:08:21.762Z,59.67
2023-01-17T14:10:51.997Z,59.87
2023-01-17T14:13:33.638Z,61.13
2023-01-17T14:16:01.119Z,64.92
2023-01-17T14:18:33.052Z,67.50
2023-01-17T14:21:10.462Z,69.23
2023-01-17T14:23:47.605Z,72.50
2023-01-17T14:26:19.922Z,74.19
2023-01-17T14:28:46.467Z,75.27
2023-01-17T14:31:15.482Z,75.73
2023-01-17T14:33:43.215Z,75.70
2023-01-17T14:36:24.800Z,76.34
2023-01-17T14:38:51.465Z,77.32
2023-01-17T14:41:20.467Z,78.60
2023-01-17T14:43:49.313Z,79.29
2023-01-17T14:46:25.154Z,76.40
2023-01-17T14:48:59.283Z,72.54
2023-01-17T14:51:25.971Z,69.47
2023-01-17T14:53:54.068Z,68.04
2023-01-17T14:56:20.479Z,68.22
2023-01-17T14:58:46.917Z,68.04
2023-01-17T15:01:17.612Z,68.82
2023-01-17T15:03:54.743Z,69.26
2023-01-17T15:06:38.627Z,69.85
2023-01-17T15:09:16.431Z,71.33
2023-01-17T15:11:44.330Z,72.39
2023-01-17T15:14:21.989Z,72.52
2023-01-17T15:16:51.782Z,73.42
2023-01-17T15:19:19.605Z,75.11
2023-01-17T15:21:50.684Z,76.68
2023-01-17T15:24:27.433Z,78.56
2023-01-17T15:26:54.541Z,79.02
2023-01-17T15:29:28.523Z,80.55
2023-01-17T15:32:00.435Z,82.00
2023-01-17T15:34:36.189Z,82.81
2023-01-17T15:37:08.519Z,83.92
2023-01-17T15:39:40.422Z,84.74
2023-01-17T15:42:19.356Z,86.26
2023-01-17T15:44:49.166Z,85.67
2023-01-17T15:47:40.621Z,86.86
2023-01-17T15:50:29.884Z,87.64
2023-01-17T15:53:00.973Z,89.29
2023-01-17T15:55:36.412Z,89.86
2023-01-17T15:58:05.857Z,90.36
2023-01-17T16:00:39.363Z,91.28
2023-01-17T16:03:31.881Z,91.62
2023-01-17T16:06:00.790Z,92.44
2023-01-17T16:08:39.492Z,92.76
2023-01-17T16:11:07.382Z,93.85
2023-01-17T16:13:38.990Z,94.61
2023-01-17T16:16:23.616Z,94.34
2023-01-17T16:19:00.543Z,94.37
2023-01-17T16:21:29.766Z,95.09
2023-01-17T16:23:56.877Z,95.52
2023-01-17T16:26:24.110Z,97.95
2023-01-17T16:28:50.785Z,97.68
2023-01-17T16:31:17.984Z,97.67
2023-01-17T16:33:45.898Z,98.30
2023-01-17T16:36:15.086Z,98.33
2023-01-17T16:38:43.490Z,98.88
2023-01-17T16:41:12.826Z,100.00
2023-01-17T16:43:39.691Z,100.00
2023-01-17T16:46:06.559Z,100.00
2023-01-17T16:48:33.150Z,100.00
2023-01-17T16:50:59.529Z,100.00
2023-01-17T16:53:28.432Z,100.00
2023-01-17T16:55:57.882Z,100.00
2023-01-17T16:58:24.481Z,100.00
2023-01-17T17:00:51.007Z,100.00
2023-01-17T17:03:21.347Z,100.00
2023-01-17T17:05:58.866Z,100.00
2023-01-17T17:08:25.925Z,100.00
2023-01-17T17:10:52.380Z,100.00
2023-01-17T17:13:18.872Z,100.00
2023-01-17T17:15:45.602Z,100.00
2023-01-17T17:18:17.725Z,100.00
2023-01-17T17:20:45.323Z,100.00
2023-01-17T17:23:12.273Z,100.00
2023-01-17T17:25:41.668Z,100.00
2023-01-17T17:28:10.293Z,100.00
2023-01-17T17:30:36.748Z,100.00
2023-01-17T17:33:04.532Z,100.00
2023-01-17T17:35:33.912Z,100.00
2023-01-17T17:38:01.656Z,100.00
2023-01-17T17:40:28.145Z,100.00
2023-01-17T17:42:54.551Z,100.00
2023-01-17T17:45:20.951Z,100.00
2023-01-17T17:47:47.325Z,100.00
2023-01-17T17:50:13.885Z,100.00
2023-01-17T17:52:43.943Z,100.00
2023-01-17T17:55:11.166Z,100.00
2023-01-17T17:57:37.805Z,100.00
2023-01-17T18:00:05.043Z,100.00
2023-01-17T18:02:33.201Z,100.00
2023-01-17T18:05:02.316Z,100.00
2023-01-17T18:07:32.346Z,100.00
2023-01-17T18:09:58.800Z,100.00
2023-01-17T18:12:25.435Z,100.00
2023-01-17T18:14:51.856Z,100.00
2023-01-17T18:17:20.258Z,100.00
2023-01-17T18:19:46.960Z,100.00
2023-01-17T18:22:13.715Z,100.00
2023-01-17T18:24:40.465Z,100.00
2023-01-17T18:27:06.985Z,100.00
2023-01-17T18:29:33.361Z,100.00
2023-01-17T18:31:59.758Z,100.00
2023-01-17T18:34:29.181Z,100.00
2023-01-17T18:36:56.905Z,100.00
2023-01-17T18:39:26.422Z,100.00
2023-01-17T18:41:54.013Z,100.00
2023-01-17T18:44:22.292Z,100.00
2023-01-17T18:46:50.197Z,100.00
2023-01-17T18:49:19.031Z,100.00
2023-01-17T18:51:48.946Z,100.00
2023-01-17T18:54:16.565Z,100.00
2023-01-17T18:56:43.034Z,100.00
2023-01-17T18:59:11.990Z,100.00
2023-01-17T19:01:42.064Z,100.00
2023-01-17T19:04:10.550Z,100.00
2023-01-17T19:06:42.760Z,100.00
2023-01-17T19:09:11.491Z,100.00
2023-01-17T19:11:40.521Z,100.00
2023-01-17T19:14:07.286Z,100.00
2023-01-17T19:16:40.673Z,100.00
2023-01-17T19:19:10.549Z,100.00
2023-01-17T19:21:37.161Z,100.00
2023-01-17T19:24:03.683Z,100.00
2023-01-17T19:26:30.263Z,100.00
2023-01-17T19:28:58.880Z,100.00
2023-01-17T19:31:30.305Z,100.00
2023-01-17T19:33:58.759Z,100.00
2023-01-17T19:36:32.337Z,100.00
2023-01-17T19:39:04.786Z,100.00
2023-01-17T19:41:34.524Z,100.00
2023-01-17T19:44:06.176Z,100.00
2023-01-17T19:46:34.669Z,100.00
2023-01-17T19:49:01.759Z,100.00
2023-01-17T19:51:28.797Z,100.00
2023-01-17T19:53:56.031Z,100.00
2023-01-17T19:56:25.757Z,100.00
2023-01-17T19:58:52.885Z,100.00
2023-01-17T20:01:28.670Z,100.00
2023-01-17T20:03:57.949Z,100.00
2023-01-17T20:06:28.617Z,100.00
2023-01-17T20:08:55.672Z,100.00
2023-01-17T20:11:25.025Z,100.00
2023-01-17T20:13:54.318Z,100.00
2023-01-17T20:16:22.040Z,100.00
2023-01-17T20:18:50.517Z,100.00
2023-01-17T20:21:26.172Z,100.00
2023-01-17T20:23:54.619Z,100.00
2023-01-17T20:26:31.286Z,100.00
2023-01-17T20:28:58.102Z,100.00
2023-01-17T20:31:25.585Z,100.00
2023-01-17T20:33:54.296Z,100.00
2023-01-17T20:36:23.553Z,100.00
2023-01-17T20:38:50.759Z,100.00
2023-01-17T20:41:20.175Z,100.00
2023-01-17T20:43:52.508Z,100.00
2023-01-17T20:46:21.329Z,100.00
2023-01-17T20:48:49.970Z,100.00
2023-01-17T20:51:17.891Z,100.00
2023-01-17T20:53:46.376Z,100.00
2023-01-17T20:56:15.301Z,100.00
2023-01-17T20:58:42.486Z,100.00
2023-01-17T21:01:11.259Z,100.00
2023-01-17T21:03:39.238Z,100.00
2023-01-17T21:06:08.626Z,100.00
2023-01-17T21:08:37.519Z,100.00
2023-01-17T21:11:06.000Z,100.00
2023-01-17T21:13:32.551Z,100.00
2023-01-17T21:15:59.457Z,100.00
2023-01-17T21:18:27.733Z,100.00
2023-01-17T21:20:54.357Z,100.00
2023-01-17T21:23:20.982Z,100.00
2023-01-17T21:25:55.643Z,100.00
2023-01-17T21:28:24.708Z,100.00
2023-01-17T21:30:51.956Z,100.00
2023-01-17T21:33:20.154Z,100.00
2023-01-17T21:35:46.827Z,100.00
2023-01-17T21:38:14.315Z,100.00
2023-01-17T21:40:42.283Z,100.00
2023-01-17T21:43:08.961Z,100.00
2023-01-17T21:45:40.416Z,100.00
2023-01-17T21:48:12.174Z,100.00
2023-01-17T21:50:39.185Z,100.00
2023-01-17T21:53:06.673Z,100.00
2023-01-17T21:55:51.480Z,100.00
2023-01-17T21:58:36.210Z,100.00
2023-01-17T22:01:15.883Z,100.00
2023-01-17T22:03:54.658Z,100.00
2023-01-17T22:06:23.387Z,100.00
2023-01-17T22:08:50.199Z,100.00
2023-01-17T22:11:19.007Z,100.00
2023-01-17T22:13:47.132Z,100.00
2023-01-17T22:16:16.325Z,100.00
2023-01-17T22:18:44.423Z,100.00
2023-01-17T22:21:13.466Z,100.00
2023-01-17T22:23:44.435Z,100.00
2023-01-17T22:26:11.720Z,100.00
2023-01-17T22:28:39.456Z,100.00
2023-01-17T22:31:26.987Z,100.00
2023-01-17T22:33:58.142Z,100.00
2023-01-17T22:36:24.631Z,100.00
2023-01-17T22:38:51.238Z,100.00
2023-01-17T22:41:19.978Z,100.00
2023-01-17T22:43:48.771Z,100.00
2023-01-17T22:46:19.594Z,100.00
2023-01-17T22:48:46.832Z,100.00
2023-01-17T22:51:15.326Z,100.00
2023-01-17T22:53:50.129Z,100.00
2023-01-17T22:56:21.631Z,100.00
2023-01-17T22:58:49.041Z,100.00
2023-01-17T23:01:27.654Z,100.00
2023-01-17T23:03:57.384Z,100.00
2023-01-17T23:06:27.831Z,100.00
2023-01-17T23:08:57.889Z,100.00
2023-01-17T23:11:47.255Z,100.00
2023-01-17T23:14:19.384Z,100.00
2023-01-17T23:17:07.725Z,100.00
2023-01-17T23:19:39.222Z,100.00
2023-01-17T23:22:17.378Z,100.00
2023-01-17T23:24:50.077Z,100.00
2023-01-17T23:27:36.918Z,100.00
2023-01-17T23:30:15.625Z,100.00
2023-01-17T23:32:51.021Z,100.00
2023-01-17T23:35:19.146Z,100.00
2023-01-17T23:38:04.063Z,100.00
2023-01-17T23:40:32.340Z,100.00
2023-01-17T23:43:17.338Z,100.00
2023-01-17T23:45:44.212Z,100.00
2023-01-17T23:48:10.893Z,100.00
2023-01-17T23:50:44.055Z,99.19
2023-01-17T23:53:15.364Z,98.54
2023-01-17T23:55:43.386Z,97.11
2023-01-17T23:58:11.345Z,100.00
